LFRO

Lannion-Côte de Granit Airport

Airport
ICAO code
LFRO
IATA Code
LAI
Summary
ICAO Region
EUR
ICAO Territory
Location

, Bretagne

Serving
Lannion
Elevation
290 ft
Coordinates
48° 45' 16" N , 3° 28' 18" W
Metar
LFRO 240600Z AUTO 26010KT 230V290 4200 -SNRA BR SCT017/// BKN030/// BKN042/// ///CB 05/04 Q0996

Runways

Designator Length Width Surface Rops
11/29 1700 45 ASP Yes/Yes

Airport map

Aerial View

SKYbrary Partners:

Safety knowledge contributed by: